createdAt,value
2022-12-23T00:00:03.435Z,8.56
2022-12-23T00:01:04.415Z,8.56
2022-12-23T00:02:03.644Z,8.56
2022-12-23T00:03:03.803Z,8.56
2022-12-23T00:04:03.631Z,8.56
2022-12-23T00:05:03.595Z,8.56
2022-12-23T00:06:03.441Z,8.56
2022-12-23T00:07:04.149Z,8.56
2022-12-23T00:08:04.161Z,8.56
2022-12-23T00:09:04.003Z,8.56
2022-12-23T00:10:04.006Z,8.56
2022-12-23T00:11:03.841Z,8.56
2022-12-23T00:12:03.840Z,8.56
2022-12-23T00:13:03.756Z,8.56
2022-12-23T00:14:03.756Z,8.56
2022-12-23T00:15:03.681Z,8.56
2022-12-23T00:16:03.649Z,8.56
2022-12-23T00:17:09.237Z,8.56
2022-12-23T00:18:03.522Z,8.56
2022-12-23T00:19:03.611Z,8.56
2022-12-23T00:20:04.399Z,8.56
2022-12-23T00:21:08.230Z,8.56
2022-12-23T00:22:03.513Z,8.56
2022-12-23T00:23:04.477Z,8.56
2022-12-23T00:24:04.399Z,8.56
2022-12-23T00:25:04.317Z,8.56
2022-12-23T00:26:04.412Z,8.56
2022-12-23T00:27:04.330Z,8.56
2022-12-23T00:28:04.312Z,8.56
2022-12-23T00:29:04.316Z,8.56
2022-12-23T00:30:04.147Z,8.56
2022-12-23T00:31:04.077Z,8.56
2022-12-23T00:32:04.210Z,8.56
2022-12-23T00:33:03.914Z,8.56
2022-12-23T00:34:03.933Z,8.56
2022-12-23T00:35:03.758Z,8.56
2022-12-23T00:36:03.847Z,8.56
2022-12-23T00:37:03.679Z,8.56
2022-12-23T00:38:03.606Z,8.56
2022-12-23T00:39:03.436Z,8.56
2022-12-23T00:40:06.880Z,8.56
2022-12-23T00:41:04.332Z,8.56
2022-12-23T00:42:04.320Z,8.56
2022-12-23T00:43:03.435Z,8.56
2022-12-23T00:44:04.399Z,8.56
2022-12-23T00:45:04.226Z,8.56
2022-12-23T00:46:04.341Z,8.56
2022-12-23T00:47:04.151Z,8.56
2022-12-23T00:48:04.158Z,8.56
2022-12-23T00:49:04.152Z,8.56
2022-12-23T00:50:04.070Z,8.56
2022-12-23T00:51:04.231Z,8.56
2022-12-23T00:52:04.098Z,8.56
2022-12-23T00:53:03.999Z,8.56
2022-12-23T00:54:03.994Z,8.56
2022-12-23T00:55:03.831Z,8.50
2022-12-23T00:56:03.764Z,8.50
2022-12-23T00:57:03.693Z,8.50
2022-12-23T00:58:03.668Z,8.50
2022-12-23T00:59:03.593Z,8.50
2022-12-23T01:00:03.601Z,8.50
2022-12-23T01:01:03.573Z,8.50
2022-12-23T01:02:03.635Z,8.50
2022-12-23T01:03:04.394Z,8.50
2022-12-23T01:04:04.312Z,8.50
2022-12-23T01:05:04.259Z,8.44
2022-12-23T01:06:04.234Z,8.50
2022-12-23T01:07:04.159Z,8.44
2022-12-23T01:08:04.159Z,8.44
2022-12-23T01:09:03.989Z,8.50
2022-12-23T01:10:04.318Z,8.44
2022-12-23T01:11:04.239Z,8.44
2022-12-23T01:12:04.148Z,8.44
2022-12-23T01:13:04.067Z,8.44
2022-12-23T01:14:04.157Z,8.44
2022-12-23T01:15:04.002Z,8.44
2022-12-23T01:16:03.914Z,8.44
2022-12-23T01:17:04.830Z,8.44
2022-12-23T01:18:03.847Z,8.44
2022-12-23T01:19:03.765Z,8.44
2022-12-23T01:20:03.679Z,8.44
2022-12-23T01:21:03.602Z,8.44
2022-12-23T01:22:03.599Z,8.44
2022-12-23T01:23:03.675Z,8.44
2022-12-23T01:24:04.234Z,8.44
2022-12-23T01:25:04.162Z,8.44
2022-12-23T01:26:04.005Z,8.44
2022-12-23T01:27:03.921Z,8.44
2022-12-23T01:28:03.998Z,8.44
2022-12-23T01:29:03.912Z,8.44
2022-12-23T01:30:03.908Z,8.44
2022-12-23T01:31:03.928Z,8.38
2022-12-23T01:32:03.874Z,8.38
2022-12-23T01:33:03.757Z,8.38
2022-12-23T01:34:03.921Z,8.38
2022-12-23T01:35:03.840Z,8.38
2022-12-23T01:36:03.665Z,8.38
2022-12-23T01:37:03.589Z,8.38
2022-12-23T01:38:03.598Z,8.38
2022-12-23T01:39:04.491Z,8.38
2022-12-23T01:40:04.351Z,8.31
2022-12-23T01:41:04.313Z,8.31
2022-12-23T01:42:04.244Z,8.31
2022-12-23T01:43:04.082Z,8.31
2022-12-23T01:44:04.072Z,8.31
2022-12-23T01:45:03.992Z,8.31
2022-12-23T01:46:04.035Z,8.31
2022-12-23T01:47:03.915Z,8.25
2022-12-23T01:48:03.993Z,8.25
2022-12-23T01:49:04.000Z,8.25
2022-12-23T01:50:04.024Z,8.25
2022-12-23T01:51:03.916Z,8.25
2022-12-23T01:52:03.904Z,8.25
2022-12-23T01:53:07.598Z,8.25
2022-12-23T01:54:03.664Z,8.19
2022-12-23T01:55:03.592Z,8.19
2022-12-23T01:56:03.686Z,8.19
2022-12-23T01:57:03.590Z,8.19
2022-12-23T01:58:03.582Z,8.19
2022-12-23T01:59:03.624Z,8.19
2022-12-23T02:00:03.521Z,8.12
2022-12-23T02:01:03.563Z,8.12
2022-12-23T02:02:04.469Z,8.12
2022-12-23T02:03:04.482Z,8.12
2022-12-23T02:04:04.233Z,8.12
2022-12-23T02:05:04.150Z,8.12
2022-12-23T02:06:04.153Z,8.12
2022-12-23T02:07:03.910Z,8.12
2022-12-23T02:08:03.752Z,8.12
2022-12-23T02:09:03.670Z,8.06
2022-12-23T02:10:03.763Z,8.06
2022-12-23T02:11:03.754Z,8.06
2022-12-23T02:12:03.672Z,8.06
2022-12-23T02:13:03.670Z,8.06
2022-12-23T02:14:03.749Z,8.00
2022-12-23T02:15:03.591Z,8.00
2022-12-23T02:16:03.679Z,8.00
2022-12-23T02:17:03.764Z,8.00
2022-12-23T02:18:03.687Z,7.94
2022-12-23T02:19:03.592Z,7.94
2022-12-23T02:20:03.426Z,7.94
2022-12-23T02:21:04.391Z,7.94
2022-12-23T02:22:04.420Z,7.88
2022-12-23T02:23:04.395Z,7.88
2022-12-23T02:24:04.309Z,7.88
2022-12-23T02:25:04.316Z,7.88
2022-12-23T02:26:04.317Z,7.88
2022-12-23T02:27:04.170Z,7.81
2022-12-23T02:28:04.154Z,7.81
2022-12-23T02:29:04.388Z,7.81
2022-12-23T02:30:04.336Z,7.81
2022-12-23T02:31:04.375Z,7.75
2022-12-23T02:32:04.223Z,7.75
2022-12-23T02:33:04.233Z,7.75
2022-12-23T02:34:04.230Z,7.75
2022-12-23T02:35:04.024Z,7.75
2022-12-23T02:36:04.065Z,7.69
2022-12-23T02:37:03.988Z,7.69
2022-12-23T02:38:03.989Z,7.69
2022-12-23T02:39:03.910Z,7.69
2022-12-23T02:40:03.836Z,7.69
2022-12-23T02:41:03.832Z,7.69
2022-12-23T02:42:03.751Z,7.69
2022-12-23T02:43:03.688Z,7.62
2022-12-23T02:44:03.598Z,7.62
2022-12-23T02:45:03.512Z,7.62
2022-12-23T02:46:04.494Z,7.62
2022-12-23T02:47:04.341Z,7.62
2022-12-23T02:48:04.317Z,7.62
2022-12-23T02:49:04.315Z,7.62
2022-12-23T02:50:04.226Z,7.56
2022-12-23T02:51:04.166Z,7.56
2022-12-23T02:52:04.152Z,7.56
2022-12-23T02:53:04.012Z,7.56
2022-12-23T02:54:03.918Z,7.56
2022-12-23T02:55:03.859Z,7.56
2022-12-23T02:56:03.836Z,7.56
2022-12-23T02:57:03.834Z,7.56
2022-12-23T02:58:03.673Z,7.56
2022-12-23T02:59:03.673Z,7.56
2022-12-23T03:00:03.676Z,7.50
2022-12-23T03:01:03.712Z,7.56
2022-12-23T03:02:03.660Z,7.56
2022-12-23T03:03:04.506Z,7.56
2022-12-23T03:04:06.736Z,7.56
2022-12-23T03:05:04.400Z,7.56
2022-12-23T03:06:03.830Z,7.56
2022-12-23T03:07:07.598Z,7.56
2022-12-23T03:08:03.762Z,7.62
2022-12-23T03:09:03.748Z,7.56
2022-12-23T03:10:03.757Z,7.62
2022-12-23T03:11:03.688Z,7.62
2022-12-23T03:12:03.672Z,7.62
2022-12-23T03:13:03.672Z,7.62
2022-12-23T03:14:03.586Z,7.62
2022-12-23T03:15:03.596Z,7.62
2022-12-23T03:16:03.750Z,7.62
2022-12-23T03:17:03.670Z,7.62
2022-12-23T03:18:03.677Z,7.62
2022-12-23T03:19:03.611Z,7.62
2022-12-23T03:20:03.691Z,7.62
2022-12-23T03:21:03.688Z,7.62
2022-12-23T03:22:03.669Z,7.62
2022-12-23T03:23:03.529Z,7.62
2022-12-23T03:24:03.530Z,7.69
2022-12-23T03:25:04.383Z,7.69
2022-12-23T03:26:04.308Z,7.69
2022-12-23T03:27:04.332Z,7.69
2022-12-23T03:28:03.422Z,7.69
2022-12-23T03:29:04.383Z,7.69
2022-12-23T03:30:04.385Z,7.69
2022-12-23T03:31:04.440Z,7.69
2022-12-23T03:32:04.315Z,7.69
2022-12-23T03:33:04.142Z,7.69
2022-12-23T03:34:04.066Z,7.69
2022-12-23T03:35:04.065Z,7.69
2022-12-23T03:36:04.012Z,7.69
2022-12-23T03:37:03.993Z,7.69
2022-12-23T03:38:03.911Z,7.69
2022-12-23T03:39:03.997Z,7.69
2022-12-23T03:40:03.992Z,7.69
2022-12-23T03:41:03.996Z,7.69
2022-12-23T03:42:03.906Z,7.69
2022-12-23T03:43:03.916Z,7.69
2022-12-23T03:44:03.918Z,7.69
2022-12-23T03:45:36.749Z,7.69
2022-12-23T03:46:03.835Z,7.69
2022-12-23T03:47:03.830Z,7.69
2022-12-23T03:48:03.990Z,7.69
2022-12-23T03:49:03.998Z,7.69
2022-12-23T03:50:04.002Z,7.69
2022-12-23T03:51:03.830Z,7.69
2022-12-23T03:52:03.740Z,7.69
2022-12-23T03:53:03.663Z,7.75
2022-12-23T03:54:03.604Z,7.69
2022-12-23T03:55:03.520Z,7.69
2022-12-23T03:56:03.593Z,7.69
2022-12-23T03:57:03.526Z,7.69
2022-12-23T03:58:04.484Z,7.69
2022-12-23T03:59:03.441Z,7.69
2022-12-23T04:00:03.509Z,7.69
2022-12-23T04:01:03.507Z,7.69
2022-12-23T04:02:04.593Z,7.69
2022-12-23T04:03:04.530Z,7.69
2022-12-23T04:04:03.476Z,7.69
2022-12-23T04:05:03.910Z,7.69
2022-12-23T04:06:03.855Z,7.69
2022-12-23T04:07:03.831Z,7.69
2022-12-23T04:08:03.746Z,7.69
2022-12-23T04:09:03.665Z,7.69
2022-12-23T04:10:03.595Z,7.69
2022-12-23T04:11:03.536Z,7.69
2022-12-23T04:12:03.441Z,7.69
2022-12-23T04:13:04.313Z,7.69
2022-12-23T04:14:04.151Z,7.69
2022-12-23T04:15:09.087Z,7.69
2022-12-23T04:16:04.130Z,7.69
2022-12-23T04:17:03.936Z,7.62
2022-12-23T04:18:03.922Z,7.62
2022-12-23T04:19:03.836Z,7.62
2022-12-23T04:20:03.683Z,7.62
2022-12-23T04:21:03.602Z,7.62
2022-12-23T04:22:03.588Z,7.62
2022-12-23T04:23:04.232Z,7.56
2022-12-23T04:24:04.155Z,7.56
2022-12-23T04:25:04.075Z,7.56
2022-12-23T04:26:03.912Z,7.56
2022-12-23T04:27:03.914Z,7.56
2022-12-23T04:28:03.988Z,7.56
2022-12-23T04:29:03.859Z,7.56
2022-12-23T04:30:03.838Z,7.56
2022-12-23T04:31:03.846Z,7.50
2022-12-23T04:32:03.590Z,7.50
2022-12-23T04:33:03.606Z,7.50
2022-12-23T04:34:03.429Z,7.50
2022-12-23T04:35:04.389Z,7.50
2022-12-23T04:36:04.392Z,7.50
2022-12-23T04:37:04.398Z,7.50
2022-12-23T04:38:04.477Z,7.50
2022-12-23T04:39:03.506Z,7.50
2022-12-23T04:40:04.483Z,7.50
2022-12-23T04:41:04.409Z,7.50
2022-12-23T04:42:04.312Z,7.50
2022-12-23T04:43:04.333Z,7.50
2022-12-23T04:44:04.392Z,7.50
2022-12-23T04:45:04.306Z,7.50
2022-12-23T04:46:04.153Z,7.50
2022-12-23T04:47:04.237Z,7.44
2022-12-23T04:48:04.066Z,7.50
2022-12-23T04:49:04.073Z,7.50
2022-12-23T04:50:03.999Z,7.50
2022-12-23T04:51:03.833Z,7.44
2022-12-23T04:52:03.869Z,7.44
2022-12-23T04:53:03.770Z,7.44
2022-12-23T04:54:03.672Z,7.50
2022-12-23T04:55:03.594Z,7.44
2022-12-23T04:56:03.632Z,7.44
2022-12-23T04:57:03.515Z,7.44
2022-12-23T04:58:04.515Z,7.44
2022-12-23T04:59:04.340Z,7.44
2022-12-23T05:00:04.229Z,7.44
2022-12-23T05:01:04.269Z,7.44
2022-12-23T05:02:04.114Z,7.44
2022-12-23T05:03:04.162Z,7.44
2022-12-23T05:04:04.072Z,7.44
2022-12-23T05:05:04.005Z,7.44
2022-12-23T05:06:03.915Z,7.44
2022-12-23T05:07:03.872Z,7.44
2022-12-23T05:08:03.766Z,7.44
2022-12-23T05:09:03.677Z,7.38
2022-12-23T05:10:03.677Z,7.44
2022-12-23T05:11:03.531Z,7.38
2022-12-23T05:12:03.438Z,7.38
2022-12-23T05:13:04.391Z,7.38
2022-12-23T05:14:04.313Z,7.38
2022-12-23T05:15:04.233Z,7.38
2022-12-23T05:16:04.179Z,7.38
2022-12-23T05:17:07.566Z,7.38
2022-12-23T05:18:04.318Z,7.38
2022-12-23T05:19:04.233Z,7.31
2022-12-23T05:20:04.158Z,7.31
2022-12-23T05:21:03.997Z,7.31
2022-12-23T05:22:04.104Z,7.31
2022-12-23T05:23:03.921Z,7.31
2022-12-23T05:24:03.926Z,7.31
2022-12-23T05:25:04.177Z,7.31
2022-12-23T05:26:04.005Z,7.31
2022-12-23T05:27:03.924Z,7.31
2022-12-23T05:28:03.913Z,7.31
2022-12-23T05:29:03.909Z,7.31
2022-12-23T05:30:03.992Z,7.31
2022-12-23T05:31:03.978Z,7.31
2022-12-23T05:32:03.911Z,7.31
2022-12-23T05:33:03.937Z,7.31
2022-12-23T05:34:06.508Z,7.31
2022-12-23T05:35:03.675Z,7.31
2022-12-23T05:36:03.775Z,7.31
2022-12-23T05:37:03.607Z,7.31
2022-12-23T05:38:03.523Z,7.31
2022-12-23T05:39:04.388Z,7.31
2022-12-23T05:40:04.349Z,7.31
2022-12-23T05:41:04.168Z,7.31
2022-12-23T05:42:04.153Z,7.31
2022-12-23T05:43:04.076Z,7.31
2022-12-23T05:44:04.027Z,7.31
2022-12-23T05:45:03.959Z,7.31
2022-12-23T05:46:03.989Z,7.31
2022-12-23T05:47:03.837Z,7.31
2022-12-23T05:48:03.753Z,7.31
2022-12-23T05:49:03.672Z,7.31
2022-12-23T05:50:03.609Z,7.31
2022-12-23T05:51:03.514Z,7.31
2022-12-23T05:52:03.516Z,7.31
2022-12-23T05:53:04.386Z,7.31
2022-12-23T05:54:04.316Z,7.31
2022-12-23T05:55:04.335Z,7.31
2022-12-23T05:56:04.310Z,7.31
2022-12-23T05:57:04.147Z,7.31
2022-12-23T05:58:04.084Z,7.31
2022-12-23T05:59:04.009Z,7.31
2022-12-23T06:00:04.027Z,7.31
2022-12-23T06:01:03.837Z,7.31
2022-12-23T06:02:04.026Z,7.31
2022-12-23T06:03:03.950Z,7.31
2022-12-23T06:04:03.919Z,7.31
2022-12-23T06:05:03.693Z,7.31
2022-12-23T06:06:03.673Z,7.31
2022-12-23T06:07:03.621Z,7.31
2022-12-23T06:08:03.513Z,7.31
2022-12-23T06:09:04.393Z,7.31
2022-12-23T06:10:04.400Z,7.31
2022-12-23T06:11:04.320Z,7.31
2022-12-23T06:12:04.230Z,7.31
2022-12-23T06:13:04.150Z,7.31
2022-12-23T06:14:04.159Z,7.31
2022-12-23T06:15:03.987Z,7.31
2022-12-23T06:16:04.137Z,7.31
2022-12-23T06:17:04.107Z,7.31
2022-12-23T06:18:03.905Z,7.31
2022-12-23T06:19:03.921Z,7.31
2022-12-23T06:20:03.916Z,7.31
2022-12-23T06:21:03.917Z,7.31
2022-12-23T06:22:03.833Z,7.31
2022-12-23T06:23:03.751Z,7.31
2022-12-23T06:24:03.673Z,7.31
2022-12-23T06:25:03.512Z,7.31
2022-12-23T06:26:03.427Z,7.31
2022-12-23T06:27:04.318Z,7.31
2022-12-23T06:28:04.385Z,7.31
2022-12-23T06:29:04.315Z,7.31
2022-12-23T06:30:04.310Z,7.31
2022-12-23T06:31:04.313Z,7.31
2022-12-23T06:32:04.321Z,7.31
2022-12-23T06:33:04.180Z,7.31
2022-12-23T06:34:04.088Z,7.31
2022-12-23T06:35:04.092Z,7.31
2022-12-23T06:36:04.076Z,7.31
2022-12-23T06:37:03.913Z,7.31
2022-12-23T06:38:06.384Z,7.31
2022-12-23T06:39:03.928Z,7.31
2022-12-23T06:40:03.760Z,7.31
2022-12-23T06:41:03.745Z,7.31
2022-12-23T06:42:03.597Z,7.31
2022-12-23T06:43:03.537Z,7.38
2022-12-23T06:44:03.541Z,7.38
2022-12-23T06:45:03.433Z,7.38
2022-12-23T06:46:04.472Z,7.38
2022-12-23T06:47:04.239Z,7.38
2022-12-23T06:48:04.169Z,7.38
2022-12-23T06:49:07.612Z,7.38
2022-12-23T06:50:04.005Z,7.38
2022-12-23T06:51:03.924Z,7.38
2022-12-23T06:52:03.827Z,7.38
2022-12-23T06:53:03.747Z,7.38
2022-12-23T06:54:03.700Z,7.38
2022-12-23T06:55:03.519Z,7.38
2022-12-23T06:56:03.431Z,7.38
2022-12-23T06:57:04.394Z,7.38
2022-12-23T06:58:04.233Z,7.38
2022-12-23T06:59:04.228Z,7.38
2022-12-23T07:00:04.166Z,7.38
2022-12-23T07:01:04.037Z,7.38
2022-12-23T07:02:04.192Z,7.38
2022-12-23T07:03:03.932Z,7.38
2022-12-23T07:04:03.887Z,7.38
2022-12-23T07:05:03.760Z,7.38
2022-12-23T07:06:03.680Z,7.38
2022-12-23T07:07:03.592Z,7.38
2022-12-23T07:08:03.674Z,7.38
2022-12-23T07:09:03.508Z,7.38
2022-12-23T07:10:03.430Z,7.38
2022-12-23T07:11:04.477Z,7.38
2022-12-23T07:12:04.339Z,7.38
2022-12-23T07:13:04.227Z,7.38
2022-12-23T07:14:04.149Z,7.38
2022-12-23T07:15:04.149Z,7.38
2022-12-23T07:16:04.068Z,7.38
2022-12-23T07:17:04.104Z,7.44
2022-12-23T07:18:04.074Z,7.44
2022-12-23T07:19:04.111Z,7.44
2022-12-23T07:20:03.843Z,7.44
2022-12-23T07:21:03.767Z,7.44
2022-12-23T07:22:03.692Z,7.44
2022-12-23T07:23:03.587Z,7.44
2022-12-23T07:24:03.506Z,7.44
2022-12-23T07:25:03.525Z,7.44
2022-12-23T07:26:03.437Z,7.44
2022-12-23T07:27:03.514Z,7.44
2022-12-23T07:28:04.399Z,7.44
2022-12-23T07:29:04.241Z,7.44
2022-12-23T07:30:04.230Z,7.44
2022-12-23T07:31:04.385Z,7.44
2022-12-23T07:32:04.516Z,7.44
2022-12-23T07:33:04.350Z,7.44
2022-12-23T07:34:04.149Z,7.50
2022-12-23T07:35:04.159Z,7.44
2022-12-23T07:36:04.149Z,7.44
2022-12-23T07:37:04.077Z,7.44
2022-12-23T07:38:04.065Z,7.44
2022-12-23T07:39:04.079Z,7.44
2022-12-23T07:40:08.467Z,7.44
2022-12-23T07:41:04.007Z,7.44
2022-12-23T07:42:25.352Z,7.50
2022-12-23T07:43:04.386Z,7.50
2022-12-23T07:44:04.261Z,7.50
2022-12-23T07:45:04.235Z,7.50
2022-12-23T07:46:04.181Z,7.50
2022-12-23T07:47:03.996Z,7.50
2022-12-23T07:48:04.008Z,7.50
2022-12-23T07:49:03.922Z,7.50
2022-12-23T07:50:03.929Z,7.50
2022-12-23T07:51:03.946Z,7.50
2022-12-23T07:52:03.918Z,7.50
2022-12-23T07:53:03.754Z,7.50
2022-12-23T07:54:03.757Z,7.50
2022-12-23T07:55:03.828Z,7.56
2022-12-23T07:56:03.918Z,7.56
2022-12-23T07:57:03.832Z,7.56
2022-12-23T07:58:03.910Z,7.56
2022-12-23T07:59:03.748Z,7.56
2022-12-23T08:00:03.674Z,7.56
2022-12-23T08:01:03.692Z,7.56
2022-12-23T08:02:03.585Z,7.56
2022-12-23T08:03:04.501Z,7.62
2022-12-23T08:04:04.313Z,7.62
2022-12-23T08:05:04.294Z,7.62
2022-12-23T08:06:04.166Z,7.62
2022-12-23T08:07:04.167Z,7.62
2022-12-23T08:08:03.992Z,7.62
2022-12-23T08:09:03.907Z,7.69
2022-12-23T08:10:03.848Z,7.69
2022-12-23T08:11:03.837Z,7.69
2022-12-23T08:12:03.825Z,7.69
2022-12-23T08:13:03.758Z,7.75
2022-12-23T08:14:03.751Z,7.75
2022-12-23T08:15:03.608Z,7.75
2022-12-23T08:16:03.583Z,7.75
2022-12-23T08:17:03.594Z,7.81
2022-12-23T08:18:04.391Z,7.81
2022-12-23T08:19:04.311Z,7.81
2022-12-23T08:20:04.243Z,7.88
2022-12-23T08:21:04.157Z,7.88
2022-12-23T08:22:04.158Z,7.88
2022-12-23T08:23:04.069Z,7.94
2022-12-23T08:24:04.089Z,7.94
2022-12-23T08:25:04.078Z,8.00
2022-12-23T08:26:04.154Z,8.00
2022-12-23T08:27:04.080Z,8.00
2022-12-23T08:28:04.075Z,8.00
2022-12-23T08:29:03.840Z,8.06
2022-12-23T08:30:03.806Z,8.06
2022-12-23T08:31:03.755Z,8.06
2022-12-23T08:32:03.678Z,8.12
2022-12-23T08:33:03.839Z,8.12
2022-12-23T08:34:03.846Z,8.12
2022-12-23T08:35:03.763Z,8.19
2022-12-23T08:36:03.830Z,8.19
2022-12-23T08:37:03.912Z,8.19
2022-12-23T08:38:03.746Z,8.25
2022-12-23T08:39:03.681Z,8.25
2022-12-23T08:40:03.671Z,8.25
2022-12-23T08:41:03.671Z,8.25
2022-12-23T08:42:03.887Z,8.31
2022-12-23T08:43:03.607Z,8.31
2022-12-23T08:44:03.435Z,8.31
2022-12-23T08:45:04.387Z,8.31
2022-12-23T08:46:03.605Z,8.38
2022-12-23T08:47:03.604Z,8.38
2022-12-23T08:48:03.436Z,8.38
2022-12-23T08:49:03.533Z,8.44
2022-12-23T08:50:03.611Z,8.44
2022-12-23T08:51:03.674Z,8.44
2022-12-23T08:52:03.527Z,8.50
2022-12-23T08:53:04.306Z,8.50
2022-12-23T08:54:04.250Z,8.50
2022-12-23T08:55:04.320Z,8.56
2022-12-23T08:56:04.248Z,8.56
2022-12-23T08:57:04.057Z,8.56
2022-12-23T08:58:04.067Z,8.56
2022-12-23T08:59:04.017Z,8.62
2022-12-23T09:00:03.840Z,8.62
2022-12-23T09:01:03.820Z,8.62
2022-12-23T09:02:03.843Z,8.62
2022-12-23T09:03:03.837Z,8.62
2022-12-23T09:04:03.744Z,8.69
2022-12-23T09:05:03.587Z,8.69
2022-12-23T09:06:03.513Z,8.69
2022-12-23T09:07:04.385Z,8.69
2022-12-23T09:08:04.387Z,8.69
2022-12-23T09:09:04.399Z,8.75
2022-12-23T09:10:04.156Z,8.75
2022-12-23T09:11:04.070Z,8.75
2022-12-23T09:12:03.996Z,8.75
2022-12-23T09:13:03.908Z,8.81
2022-12-23T09:14:03.926Z,8.81
2022-12-23T09:15:03.751Z,8.81
2022-12-23T09:16:03.810Z,8.81
2022-12-23T09:17:03.763Z,8.81
2022-12-23T09:18:03.600Z,8.88
2022-12-23T09:19:03.986Z,8.88
2022-12-23T09:20:03.993Z,8.88
2022-12-23T09:21:03.991Z,8.88
2022-12-23T09:22:03.931Z,8.94
2022-12-23T09:23:03.833Z,8.94
2022-12-23T09:24:03.773Z,8.94
2022-12-23T09:25:05.405Z,8.94
2022-12-23T09:26:03.697Z,8.94
2022-12-23T09:27:03.912Z,8.94
2022-12-23T09:28:03.934Z,8.94
2022-12-23T09:29:03.744Z,8.94
2022-12-23T09:30:03.670Z,9.00
2022-12-23T09:31:03.713Z,9.00
2022-12-23T09:32:03.432Z,9.00
2022-12-23T09:33:04.394Z,9.00
2022-12-23T09:34:03.522Z,9.00
2022-12-23T09:35:04.417Z,9.06
2022-12-23T09:36:04.483Z,9.06
2022-12-23T09:37:04.405Z,9.06
2022-12-23T09:38:04.385Z,9.06
2022-12-23T09:39:04.472Z,9.06
2022-12-23T09:40:04.309Z,9.06
2022-12-23T09:41:04.254Z,9.12
2022-12-23T09:42:04.227Z,9.12
2022-12-23T09:43:04.308Z,9.12
2022-12-23T09:44:04.316Z,9.12
2022-12-23T09:45:04.234Z,9.12
2022-12-23T09:46:04.382Z,9.12
2022-12-23T09:47:04.377Z,9.19
2022-12-23T09:48:04.389Z,9.19
2022-12-23T09:49:04.248Z,9.19
2022-12-23T09:50:04.238Z,9.19
2022-12-23T09:51:04.159Z,9.19
2022-12-23T09:52:03.995Z,9.19
2022-12-23T09:53:04.090Z,9.19
2022-12-23T09:54:04.012Z,9.19
2022-12-23T09:55:03.827Z,9.25
2022-12-23T09:56:04.081Z,9.25
2022-12-23T09:57:03.909Z,9.25
2022-12-23T09:58:03.917Z,9.25
2022-12-23T09:59:03.851Z,9.25
2022-12-23T10:00:03.685Z,9.25
2022-12-23T10:01:03.541Z,9.25
2022-12-23T10:02:03.688Z,9.25
2022-12-23T10:03:04.700Z,9.25
2022-12-23T10:04:04.506Z,9.31
2022-12-23T10:05:04.400Z,9.31
2022-12-23T10:06:04.432Z,9.31
2022-12-23T10:07:04.404Z,9.31
2022-12-23T10:08:04.298Z,9.31
2022-12-23T10:09:04.181Z,9.38
2022-12-23T10:10:04.076Z,9.38
2022-12-23T10:11:03.997Z,9.38
2022-12-23T10:12:03.924Z,9.38
2022-12-23T10:13:03.853Z,9.38
2022-12-23T10:14:03.828Z,9.38
2022-12-23T10:15:03.427Z,9.44
2022-12-23T10:16:03.634Z,9.44
2022-12-23T10:17:04.389Z,9.44
2022-12-23T10:18:03.587Z,9.44
2022-12-23T10:19:03.685Z,9.50
2022-12-23T10:20:03.592Z,9.50
2022-12-23T10:21:03.520Z,9.50
2022-12-23T10:22:03.522Z,9.56
2022-12-23T10:23:03.427Z,9.56
2022-12-23T10:24:04.419Z,9.56
2022-12-23T10:25:04.316Z,9.56
2022-12-23T10:26:04.156Z,9.62
2022-12-23T10:27:05.126Z,9.62
2022-12-23T10:28:04.160Z,9.62
2022-12-23T10:29:04.070Z,9.69
2022-12-23T10:30:20.234Z,9.69
2022-12-23T10:31:38.346Z,9.69
2022-12-23T10:32:03.649Z,9.69
2022-12-23T10:33:03.519Z,9.69
2022-12-23T10:34:03.445Z,9.69
2022-12-23T10:35:03.522Z,9.69
2022-12-23T10:36:03.503Z,9.75
2022-12-23T10:37:04.458Z,9.75
2022-12-23T10:38:04.391Z,9.75
2022-12-23T10:39:04.311Z,9.75
2022-12-23T10:40:04.241Z,9.75
2022-12-23T10:41:07.036Z,9.81
2022-12-23T10:42:04.337Z,9.81
2022-12-23T10:43:04.239Z,9.81
2022-12-23T10:44:04.165Z,9.81
2022-12-23T10:45:04.191Z,9.81
2022-12-23T10:46:04.094Z,9.81
2022-12-23T10:47:03.981Z,9.81
2022-12-23T10:48:05.094Z,9.88
2022-12-23T10:49:03.841Z,9.88
2022-12-23T10:50:03.762Z,9.88
2022-12-23T10:51:03.679Z,9.88
2022-12-23T10:52:03.512Z,9.88
2022-12-23T10:53:04.391Z,9.88
2022-12-23T10:54:04.397Z,9.88
2022-12-23T10:55:04.480Z,9.88
2022-12-23T10:56:04.403Z,9.88
2022-12-23T10:57:04.313Z,9.88
2022-12-23T10:58:03.644Z,9.94
2022-12-23T10:59:04.417Z,9.94
2022-12-23T11:00:09.754Z,9.94
2022-12-23T11:01:08.366Z,9.94
2022-12-23T11:02:04.469Z,9.94
2022-12-23T11:03:04.373Z,9.94
2022-12-23T11:04:04.265Z,9.94
2022-12-23T11:05:04.146Z,9.94
2022-12-23T11:06:04.230Z,10.00
2022-12-23T11:07:18.588Z,9.94
2022-12-23T11:08:04.488Z,10.00
2022-12-23T11:09:04.227Z,10.00
2022-12-23T11:10:04.163Z,10.00
2022-12-23T11:11:04.178Z,10.00
2022-12-23T11:12:09.601Z,10.00
2022-12-23T11:13:03.922Z,10.00
2022-12-23T11:14:03.832Z,10.00
2022-12-23T11:15:03.769Z,10.06
2022-12-23T11:16:03.736Z,10.06
2022-12-23T11:17:03.613Z,10.06
2022-12-23T11:18:03.603Z,10.06
2022-12-23T11:19:03.721Z,10.06
2022-12-23T11:20:03.507Z,10.06
2022-12-23T11:21:03.611Z,10.12
2022-12-23T11:22:04.467Z,10.12
2022-12-23T11:23:04.395Z,10.12
2022-12-23T11:24:03.534Z,10.12
2022-12-23T11:25:03.595Z,10.12
2022-12-23T11:26:04.471Z,10.12
2022-12-23T11:27:03.540Z,10.12
2022-12-23T11:28:04.394Z,10.12
2022-12-23T11:29:04.309Z,10.19
2022-12-23T11:30:04.236Z,10.19
2022-12-23T11:31:04.197Z,10.19
2022-12-23T11:32:04.101Z,10.19
2022-12-23T11:33:03.931Z,10.19
2022-12-23T11:34:03.929Z,10.19
2022-12-23T11:35:04.037Z,10.19
2022-12-23T11:36:03.911Z,10.19
2022-12-23T11:37:07.375Z,10.19
2022-12-23T11:38:03.686Z,10.19
2022-12-23T11:39:03.763Z,10.25
2022-12-23T11:40:03.670Z,10.19
2022-12-23T11:41:03.598Z,10.25
2022-12-23T11:42:03.596Z,10.25
2022-12-23T11:43:03.568Z,10.19
2022-12-23T11:44:03.432Z,10.19
2022-12-23T11:45:04.480Z,10.25
2022-12-23T11:46:04.454Z,10.19
2022-12-23T11:47:04.244Z,10.25
2022-12-23T11:48:04.161Z,10.25
2022-12-23T11:49:04.102Z,10.25
2022-12-23T11:50:03.997Z,10.25
2022-12-23T11:51:04.010Z,10.25
2022-12-23T11:52:03.949Z,10.19
2022-12-23T11:53:04.339Z,10.19
2022-12-23T11:54:03.914Z,10.19
2022-12-23T11:55:03.848Z,10.19
2022-12-23T11:56:03.825Z,10.19
2022-12-23T11:57:03.924Z,10.19
2022-12-23T11:58:03.761Z,10.19
2022-12-23T11:59:03.686Z,10.19
2022-12-23T12:00:03.677Z,10.19
2022-12-23T12:01:03.506Z,10.19
2022-12-23T12:02:03.558Z,10.19
2022-12-23T12:03:04.467Z,10.19
2022-12-23T12:04:04.429Z,10.19
2022-12-23T12:05:04.320Z,10.19
2022-12-23T12:06:04.297Z,10.19
2022-12-23T12:07:04.170Z,10.19
2022-12-23T12:08:04.158Z,10.19
2022-12-23T12:09:04.069Z,10.19
2022-12-23T12:10:04.004Z,10.12
2022-12-23T12:11:03.951Z,10.19
2022-12-23T12:12:03.917Z,10.12
2022-12-23T12:13:03.842Z,10.12
2022-12-23T12:14:03.924Z,10.12
2022-12-23T12:15:04.010Z,10.12
2022-12-23T12:16:03.911Z,10.12
2022-12-23T12:17:04.074Z,10.12
2022-12-23T12:18:04.031Z,10.12
2022-12-23T12:19:03.987Z,10.12
2022-12-23T12:20:03.909Z,10.12
2022-12-23T12:21:03.915Z,10.12
2022-12-23T12:22:03.750Z,10.19
2022-12-23T12:23:03.759Z,10.19
2022-12-23T12:24:17.526Z,10.12
2022-12-23T12:25:03.590Z,10.12
2022-12-23T12:26:03.521Z,10.12
2022-12-23T12:27:03.435Z,10.12
2022-12-23T12:28:03.549Z,10.12
2022-12-23T12:29:09.632Z,10.12
2022-12-23T12:30:08.297Z,10.12
2022-12-23T12:31:04.378Z,10.12
2022-12-23T12:32:04.151Z,10.12
2022-12-23T12:33:09.629Z,10.12
2022-12-23T12:34:04.079Z,10.12
2022-12-23T12:35:04.086Z,10.12
2022-12-23T12:36:05.557Z,10.12
2022-12-23T12:37:03.979Z,10.12
2022-12-23T12:38:03.918Z,10.12
2022-12-23T12:39:03.915Z,10.12
2022-12-23T12:40:03.831Z,10.12
2022-12-23T12:41:03.995Z,10.12
2022-12-23T12:42:05.924Z,10.12
2022-12-23T12:43:03.755Z,10.12
2022-12-23T12:44:03.677Z,10.12
2022-12-23T12:45:03.685Z,10.12
2022-12-23T12:46:03.774Z,10.12
2022-12-23T12:47:11.044Z,10.12
2022-12-23T12:48:10.223Z,10.12
2022-12-23T12:49:04.074Z,10.12
2022-12-23T12:50:04.082Z,10.12
2022-12-23T12:51:03.994Z,10.12
2022-12-23T12:52:03.914Z,10.12
2022-12-23T12:53:03.842Z,10.12
2022-12-23T12:54:05.762Z,10.12
2022-12-23T12:55:03.761Z,10.12
2022-12-23T12:56:03.678Z,10.12
2022-12-23T12:57:03.673Z,10.12
2022-12-23T12:58:03.524Z,10.12
2022-12-23T12:59:03.671Z,10.12
2022-12-23T13:00:05.829Z,10.12
2022-12-23T13:01:03.519Z,10.12
2022-12-23T13:02:04.540Z,10.12
2022-12-23T13:03:03.576Z,10.12
2022-12-23T13:04:04.510Z,10.12
2022-12-23T13:05:04.313Z,10.12
2022-12-23T13:06:04.319Z,10.12
2022-12-23T13:07:04.246Z,10.12
2022-12-23T13:08:04.158Z,10.12
2022-12-23T13:09:04.245Z,10.12
2022-12-23T13:10:04.527Z,10.06
2022-12-23T13:11:04.074Z,10.06
2022-12-23T13:12:04.067Z,10.06
2022-12-23T13:13:03.999Z,10.06
2022-12-23T13:14:03.966Z,10.06